Time;durP1;ratioP1;P1;durP2;ratioP2;P2;SDS_P1;SDS_P2;PMS_P1;PMS_P2;Temp;Humidity;BMP_temperature;BMP_pressure;BME280_temperature;BME280_humidity;BME280_pressure;Samples;Min_cycle;Max_cycle;Signal;HPM_P1;HPM_P2
2022/04/03 06:01:40;;;;;;;7.68;2.88;;;;;;;;;;5350770;23;20520;-86
2022/04/03 06:04:07;;;;;;;9.05;3.90;;;;;;;;;;4951624;28;20570;-87
2022/04/03 06:06:34;;;;;;;14.55;6.22;;;;;;;;;;4952381;29;20082;-87
2022/04/03 06:09:00;;;;;;;8.52;5.25;;;;;;;;;;4953427;29;20052;-86
2022/04/03 06:11:27;;;;;;;7.53;4.65;;;;;;;;;;4953993;28;20043;-86
2022/04/03 06:13:53;;;;;;;11.02;4.38;;;;;;;;;;4950811;29;20071;-86
2022/04/03 06:16:20;;;;;;;12.88;3.63;;;;;;;;;;4951572;28;20134;-87
2022/04/03 06:18:46;;;;;;;8.23;3.58;;;;;;;;;;4952521;29;20059;-87
2022/04/03 06:21:13;;;;;;;8.73;3.35;;;;;;;;;;4951850;29;20051;-87
2022/04/03 06:23:40;;;;;;;5.82;3.13;;;;;;;;;;4954945;28;20078;-87
2022/04/03 06:26:07;;;;;;;6.72;3.28;;;;;;;;;;4952341;28;20044;-86
2022/04/03 06:28:34;;;;;;;8.85;2.92;;;;;;;;;;4955976;29;20047;-87
2022/04/03 06:31:00;;;;;;;6.70;2.40;;;;;;;;;;4951887;29;20055;-88
2022/04/03 06:33:27;;;;;;;8.82;2.92;;;;;;;;;;4951479;28;20048;-87
2022/04/03 06:35:54;;;;;;;4.90;2.95;;;;;;;;;;4953758;29;20451;-88
2022/04/03 06:38:21;;;;;;;10.35;3.65;;;;;;;;;;4954801;28;20047;-87
2022/04/03 06:40:50;;;;;;;6.07;3.13;;;;;;;;;;4951960;28;20133;-88
2022/04/03 06:43:22;;;;;;;10.50;3.10;;;;;;;;;;4951214;28;20043;-88
2022/04/03 06:45:49;;;;;;;7.88;3.58;;;;;;;;;;4951985;28;20106;-88
2022/04/03 06:48:16;;;;;;;7.55;3.20;;;;;;;;;;4951127;29;20044;-87
2022/04/03 06:50:44;;;;;;;7.18;2.95;;;;;;;;;;4954059;29;20118;-88
2022/04/03 06:53:12;;;;;;;10.13;3.40;;;;;;;;;;4953421;28;20083;-87
2022/04/03 06:55:39;;;;;;;6.15;3.30;;;;;;;;;;4952138;29;20463;-88
2022/04/03 06:58:06;;;;;;;7.68;3.47;;;;;;;;;;4951121;28;20464;-85
2022/04/03 07:00:32;;;;;;;4.88;3.05;;;;;;;;;;4951272;29;20078;-87
2022/04/03 07:02:59;;;;;;;8.00;3.20;;;;;;;;;;4953114;29;20111;-87
2022/04/03 07:05:25;;;;;;;5.90;3.00;;;;;;;;;;4954258;29;20098;-87
2022/04/03 07:07:52;;;;;;;6.75;3.15;;;;;;;;;;4951439;28;20111;-85
2022/04/03 07:10:20;;;;;;;7.25;3.20;;;;;;;;;;4950705;28;20043;-87
2022/04/03 07:12:47;;;;;;;7.20;3.22;;;;;;;;;;4950939;29;20094;-88
2022/04/03 07:15:13;;;;;;;7.90;2.78;;;;;;;;;;4950944;29;20500;-87
2022/04/03 07:17:41;;;;;;;6.22;2.80;;;;;;;;;;4954584;28;20472;-87
2022/04/03 07:20:09;;;;;;;5.65;2.83;;;;;;;;;;4951719;28;20047;-87
2022/04/03 07:22:35;;;;;;;8.02;3.10;;;;;;;;;;4950954;28;20055;-88
2022/04/03 07:25:02;;;;;;;7.53;3.22;;;;;;;;;;4946566;29;20051;-87
2022/04/03 07:27:30;;;;;;;7.47;3.53;;;;;;;;;;4951072;28;20083;-87
2022/04/03 07:29:57;;;;;;;6.22;2.90;;;;;;;;;;4954470;29;20058;-88
2022/04/03 07:32:23;;;;;;;6.28;3.40;;;;;;;;;;4951144;28;20078;-88
2022/04/03 07:34:50;;;;;;;4.90;2.70;;;;;;;;;;4949574;28;20082;-87
2022/04/03 07:37:17;;;;;;;6.90;3.10;;;;;;;;;;4949086;28;20508;-88
2022/04/03 07:39:44;;;;;;;5.57;3.08;;;;;;;;;;4951257;28;20051;-87
2022/04/03 07:42:10;;;;;;;5.82;2.90;;;;;;;;;;4949392;29;20534;-88
2022/04/03 07:44:37;;;;;;;6.10;3.03;;;;;;;;;;4950206;29;20067;-88
2022/04/03 07:47:05;;;;;;;7.35;3.03;;;;;;;;;;4934614;29;20126;-82
2022/04/03 07:49:32;;;;;;;5.55;2.90;;;;;;;;;;4942422;28;20102;-87
2022/04/03 07:51:59;;;;;;;5.95;2.58;;;;;;;;;;4952058;28;20051;-87
2022/04/03 07:54:25;;;;;;;6.40;3.00;;;;;;;;;;4954542;28;20511;-87
2022/04/03 07:56:52;;;;;;;7.72;2.75;;;;;;;;;;4949979;28;20463;-89
2022/04/03 07:59:19;;;;;;;4.70;2.55;;;;;;;;;;4950905;28;20109;-87
2022/04/03 08:01:45;;;;;;;6.60;2.50;;;;;;;;;;4950243;28;20071;-90
2022/04/03 08:04:13;;;;;;;5.40;3.17;;;;;;;;;;4947302;28;20158;-88
2022/04/03 08:06:40;;;;;;;7.57;2.90;;;;;;;;;;4949469;29;20140;-88
2022/04/03 08:09:07;;;;;;;5.88;2.83;;;;;;;;;;4951749;28;20051;-87
2022/04/03 08:11:34;;;;;;;4.47;2.72;;;;;;;;;;4948754;28;20083;-88
2022/04/03 08:14:01;;;;;;;5.90;2.58;;;;;;;;;;4949655;28;20058;-89
2022/04/03 08:16:28;;;;;;;5.40;2.50;;;;;;;;;;4950049;29;20102;-88
2022/04/03 08:18:55;;;;;;;4.78;2.45;;;;;;;;;;4946291;29;20051;-88
2022/04/03 08:21:23;;;;;;;5.93;2.80;;;;;;;;;;4948257;28;20043;-88
2022/04/03 08:23:49;;;;;;;5.65;2.65;;;;;;;;;;4948414;29;20498;-90
2022/04/03 08:26:17;;;;;;;4.53;2.55;;;;;;;;;;4951426;28;20051;-90
2022/04/03 08:28:44;;;;;;;10.60;2.33;;;;;;;;;;4949582;28;20055;-89
2022/04/03 08:31:10;;;;;;;4.65;2.80;;;;;;;;;;4947659;29;20586;-89
2022/04/03 08:33:37;;;;;;;7.68;3.15;;;;;;;;;;4948193;28;20134;-90
2022/04/03 08:36:03;;;;;;;6.68;2.70;;;;;;;;;;4947397;28;20563;-85
2022/04/03 08:38:30;;;;;;;4.82;2.47;;;;;;;;;;4938990;28;20254;-89
2022/04/03 08:40:59;;;;;;;4.00;2.30;;;;;;;;;;4937843;28;20050;-88
2022/04/03 08:43:28;;;;;;;5.78;2.40;;;;;;;;;;4953614;28;20508;-88
2022/04/03 08:45:55;;;;;;;6.13;2.30;;;;;;;;;;4942676;28;20083;-88
2022/04/03 08:48:21;;;;;;;4.25;2.60;;;;;;;;;;4952193;28;20051;-87
2022/04/03 08:50:50;;;;;;;3.45;2.20;;;;;;;;;;4952988;28;20105;-90
2022/04/03 08:53:20;;;;;;;5.13;2.15;;;;;;;;;;4950907;28;20082;-87
2022/04/03 08:55:47;;;;;;;4.93;1.88;;;;;;;;;;4957113;28;20079;-87
2022/04/03 08:58:17;;;;;;;7.18;3.00;;;;;;;;;;4970245;28;20047;-89
2022/04/03 09:00:44;;;;;;;6.40;2.53;;;;;;;;;;4953704;28;20054;-90
2022/04/03 09:03:12;;;;;;;4.85;1.90;;;;;;;;;;4950497;28;20051;-90
2022/04/03 09:05:42;;;;;;;5.43;2.15;;;;;;;;;;4954453;28;20589;-90
2022/04/03 09:08:09;;;;;;;4.90;2.22;;;;;;;;;;4967904;28;20051;-91
2022/04/03 09:10:41;;;;;;;5.13;2.00;;;;;;;;;;4960318;28;20059;-91
2022/04/03 09:13:08;;;;;;;5.68;2.50;;;;;;;;;;4949361;28;20083;-91
2022/04/03 09:15:35;;;;;;;6.18;2.38;;;;;;;;;;4953121;28;20566;-92
2022/04/03 09:18:03;;;;;;;3.97;1.85;;;;;;;;;;4954651;28;20059;-87
2022/04/03 09:20:37;;;;;;;6.32;2.47;;;;;;;;;;4952490;29;20095;-89
2022/04/03 09:23:06;;;;;;;6.25;2.55;;;;;;;;;;4952309;28;20059;-84
2022/04/03 09:25:33;;;;;;;;;;;;;;;;;;4949667;29;20063;-90
2022/04/03 09:28:04;;;;;;;7.18;2.15;;;;;;;;;;4953615;29;20334;-89
2022/04/03 09:30:39;;;;;;;5.90;2.30;;;;;;;;;;4955011;28;20106;-90
2022/04/03 09:33:07;;;;;;;4.35;2.40;;;;;;;;;;4955514;29;20051;-88
2022/04/03 09:36:02;;;;;;;8.00;2.63;;;;;;;;;;4957031;28;20055;-88
2022/04/03 09:38:30;;;;;;;6.10;2.10;;;;;;;;;;4934007;29;20067;-90
2022/04/03 09:40:59;;;;;;;3.92;2.30;;;;;;;;;;4956146;28;20059;-90
2022/04/03 09:43:38;;;;;;;6.88;1.70;;;;;;;;;;4956359;29;20047;-88
2022/04/03 09:46:10;;;;;;;6.13;2.00;;;;;;;;;;4955119;28;20055;-89
2022/04/03 09:48:40;;;;;;;11.27;3.05;;;;;;;;;;4955558;29;20097;-89
2022/04/03 09:51:19;;;;;;;5.18;1.80;;;;;;;;;;4930866;29;20079;-90
2022/04/03 09:53:47;;;;;;;;;;;;;;;;;;4938282;28;20071;-90
2022/04/03 09:56:31;;;;;;;3.45;1.38;;;;;;;;;;4953904;28;19970;-88
2022/04/03 09:58:59;;;;;;;3.10;1.65;;;;;;;;;;4952980;28;20070;-89
2022/04/03 10:01:40;;;;;;;7.78;1.30;;;;;;;;;;4952883;28;20423;-87
2022/04/03 10:04:09;;;;;;;5.90;1.55;;;;;;;;;;4937693;28;20169;-88
2022/04/03 10:06:40;;;;;;;5.97;1.50;;;;;;;;;;4952002;28;20110;-88
2022/04/03 10:09:11;;;;;;;3.97;1.58;;;;;;;;;;4956640;28;20566;-89
2022/04/03 10:11:42;;;;;;;3.47;1.30;;;;;;;;;;4955574;28;20077;-89
2022/04/03 10:14:10;;;;;;;6.47;1.40;;;;;;;;;;4955360;28;20086;-88
2022/04/03 10:16:37;;;;;;;3.10;1.40;;;;;;;;;;4958797;28;20050;-89
2022/04/03 10:19:04;;;;;;;3.13;1.45;;;;;;;;;;4955070;28;20057;-87
2022/04/03 10:21:39;;;;;;;4.47;1.95;;;;;;;;;;4955593;28;20543;-89
2022/04/03 10:24:14;;;;;;;3.88;1.35;;;;;;;;;;4951924;28;20660;-89
2022/04/03 10:26:43;;;;;;;4.03;1.33;;;;;;;;;;4952518;28;20664;-86
2022/04/03 10:29:11;;;;;;;6.43;1.83;;;;;;;;;;4953641;28;20429;-87
2022/04/03 10:31:38;;;;;;;3.20;1.30;;;;;;;;;;4954599;28;20122;-88
2022/04/03 10:34:11;;;;;;;3.95;1.40;;;;;;;;;;4956793;28;20069;-87
2022/04/03 10:36:38;;;;;;;9.45;1.40;;;;;;;;;;4954346;28;21141;-87
2022/04/03 10:39:08;;;;;;;5.33;1.10;;;;;;;;;;4958788;28;20070;-89
2022/04/03 10:41:37;;;;;;;6.57;1.70;;;;;;;;;;4953017;28;21051;-89
2022/04/03 10:44:22;;;;;;;6.35;1.42;;;;;;;;;;4951759;28;20062;-89
2022/04/03 10:47:04;;;;;;;5.20;1.27;;;;;;;;;;4953466;28;20405;-89
2022/04/03 10:49:41;;;;;;;2.78;1.60;;;;;;;;;;4955586;28;20055;-87
2022/04/03 10:52:33;;;;;;;3.03;1.30;;;;;;;;;;4949920;28;20094;-88
2022/04/03 10:55:02;;;;;;;4.50;1.60;;;;;;;;;;4939513;28;20106;-87
2022/04/03 10:57:33;;;;;;;5.03;1.70;;;;;;;;;;4947803;28;20109;-86
2022/04/03 11:00:14;;;;;;;4.07;1.25;;;;;;;;;;4951526;28;20106;-88
2022/04/03 11:02:50;;;;;;;4.80;1.33;;;;;;;;;;4944504;28;20483;-87
2022/04/03 11:05:25;;;;;;;5.38;1.13;;;;;;;;;;4938692;28;20054;-89
2022/04/03 11:07:53;;;;;;;4.78;1.20;;;;;;;;;;4947825;28;20047;-88
2022/04/03 11:10:54;;;;;;;3.50;1.48;;;;;;;;;;4949928;28;20067;-86
2022/04/03 11:13:23;;;;;;;3.97;1.30;;;;;;;;;;4945364;28;20078;-88
2022/04/03 11:16:12;;;;;;;6.45;1.45;;;;;;;;;;4947713;28;20558;-89
2022/04/03 11:18:49;;;;;;;4.22;1.20;;;;;;;;;;4948559;28;20054;-86
2022/04/03 11:21:26;;;;;;;5.32;1.40;;;;;;;;;;4945891;28;20047;-87
2022/04/03 11:24:14;;;;;;;4.05;1.30;;;;;;;;;;4950392;28;20043;-85
2022/04/03 11:26:41;;;;;;;3.37;1.40;;;;;;;;;;4954932;28;20051;-86
2022/04/03 11:29:10;;;;;;;4.70;1.20;;;;;;;;;;4950607;28;20106;-85
2022/04/03 11:31:40;;;;;;;1.75;1.30;;;;;;;;;;4947264;28;20592;-87
2022/04/03 11:34:07;;;;;;;4.13;1.30;;;;;;;;;;4948246;28;20113;-86
2022/04/03 11:36:34;;;;;;;4.03;1.42;;;;;;;;;;4954023;28;20051;-87
2022/04/03 11:39:05;;;;;;;4.35;1.10;;;;;;;;;;4952128;28;20090;-83
2022/04/03 11:41:35;;;;;;;4.95;1.70;;;;;;;;;;4948828;28;20650;-84
2022/04/03 11:44:09;;;;;;;3.58;1.45;;;;;;;;;;4952569;28;20051;-84
2022/04/03 11:46:41;;;;;;;4.35;1.38;;;;;;;;;;4951182;28;20904;-83
2022/04/03 11:49:12;;;;;;;7.25;1.50;;;;;;;;;;4946387;28;20043;-85
2022/04/03 11:51:39;;;;;;;2.55;1.17;;;;;;;;;;4950650;28;20083;-83
2022/04/03 11:54:06;;;;;;;3.88;1.20;;;;;;;;;;4946375;28;20136;-81
2022/04/03 11:56:35;;;;;;;3.90;1.10;;;;;;;;;;4950126;28;20059;-84
2022/04/03 11:59:05;;;;;;;4.03;1.10;;;;;;;;;;4948191;29;20043;-84
2022/04/03 12:01:42;;;;;;;3.22;1.13;;;;;;;;;;4947173;29;20074;-82
2022/04/03 12:04:13;;;;;;;6.78;1.98;;;;;;;;;;4948039;28;20098;-83
2022/04/03 12:06:41;;;;;;;3.97;1.10;;;;;;;;;;4948660;28;20058;-84
2022/04/03 12:09:10;;;;;;;4.75;1.23;;;;;;;;;;4947936;28;20074;-85
2022/04/03 12:11:51;;;;;;;2.33;1.90;;;;;;;;;;4949058;28;20059;-86
2022/04/03 12:14:26;;;;;;;2.40;1.27;;;;;;;;;;4947546;28;20055;-86
2022/04/03 12:16:58;;;;;;;3.97;1.25;;;;;;;;;;4947641;28;20574;-85
2022/04/03 12:19:25;;;;;;;6.10;1.35;;;;;;;;;;4948014;29;20154;-85
2022/04/03 12:22:00;;;;;;;5.10;1.13;;;;;;;;;;4948282;28;20051;-86
2022/04/03 12:24:28;;;;;;;3.28;1.45;;;;;;;;;;4947814;29;20047;-85
2022/04/03 12:26:59;;;;;;;2.97;1.23;;;;;;;;;;4947713;28;20046;-86
2022/04/03 12:29:29;;;;;;;4.85;1.33;;;;;;;;;;4946916;29;20044;-85
2022/04/03 12:32:07;;;;;;;3.38;1.42;;;;;;;;;;4947162;28;20078;-85
2022/04/03 12:34:40;;;;;;;2.10;1.10;;;;;;;;;;4947533;28;20047;-85
2022/04/03 12:37:08;;;;;;;5.00;1.70;;;;;;;;;;4945778;28;20469;-85
2022/04/03 12:39:42;;;;;;;4.85;1.20;;;;;;;;;;4947735;28;20074;-87
2022/04/03 12:42:23;;;;;;;3.30;1.23;;;;;;;;;;4947247;29;20047;-85
2022/04/03 12:45:06;;;;;;;4.50;1.33;;;;;;;;;;4946367;28;20054;-86
2022/04/03 12:47:40;;;;;;;2.53;1.23;;;;;;;;;;4948024;28;20055;-85
2022/04/03 12:50:06;;;;;;;4.10;1.75;;;;;;;;;;4947307;28;20472;-86
2022/04/03 12:52:51;;;;;;;3.83;1.17;;;;;;;;;;4946858;29;20047;-85
2022/04/03 13:01:09;;;;;;;3.63;1.13;;;;;;;;;;4946660;28;20083;-87
2022/04/03 13:03:47;;;;;;;2.58;0.95;;;;;;;;;;4940258;28;20047;-87
2022/04/03 13:06:21;;;;;;;4.60;1.10;;;;;;;;;;4948717;28;20102;-88
2022/04/03 13:08:58;;;;;;;1.52;0.80;;;;;;;;;;4952282;28;20066;-86
2022/04/03 13:11:26;;;;;;;3.47;1.30;;;;;;;;;;4938276;28;20109;-86
2022/04/03 13:13:53;;;;;;;2.55;1.00;;;;;;;;;;4946284;28;20055;-87
2022/04/03 13:16:20;;;;;;;3.88;1.17;;;;;;;;;;4946595;28;20047;-86
2022/04/03 13:18:46;;;;;;;3.08;1.30;;;;;;;;;;4939329;28;20046;-89
2022/04/03 13:21:20;;;;;;;3.50;1.77;;;;;;;;;;4946655;28;20071;-86
2022/04/03 13:23:47;;;;;;;5.60;1.70;;;;;;;;;;4946763;28;20043;-87
2022/04/03 13:26:33;;;;;;;3.63;1.38;;;;;;;;;;4942520;28;20134;-84
2022/04/03 13:29:00;;;;;;;4.55;1.48;;;;;;;;;;4946516;28;20053;-85
2022/04/03 13:31:27;;;;;;;4.60;1.48;;;;;;;;;;4929714;29;20047;-85
2022/04/03 13:33:54;;;;;;;5.90;1.45;;;;;;;;;;4947245;28;20130;-85
2022/04/03 13:36:20;;;;;;;3.33;2.00;;;;;;;;;;4945850;28;20063;-83
2022/04/03 13:38:47;;;;;;;4.88;1.35;;;;;;;;;;4948508;29;20915;-86
2022/04/03 13:41:14;;;;;;;4.60;1.50;;;;;;;;;;4950126;28;20075;-86
2022/04/03 13:43:41;;;;;;;3.47;1.27;;;;;;;;;;4945797;28;20075;-87
2022/04/03 13:46:08;;;;;;;4.47;1.20;;;;;;;;;;4941457;28;20043;-87
2022/04/03 13:48:37;;;;;;;5.05;1.30;;;;;;;;;;4947927;28;20546;-88
2022/04/03 13:51:11;;;;;;;;;;;;;;;;;;4954555;28;20118;-87
2022/04/03 13:53:39;;;;;;;4.15;1.38;;;;;;;;;;4948311;28;20211;-87
2022/04/03 13:56:05;;;;;;;3.75;1.35;;;;;;;;;;4945208;28;20126;-88
2022/04/03 13:58:33;;;;;;;2.20;1.17;;;;;;;;;;4944320;28;20090;-86
2022/04/03 14:01:03;;;;;;;3.38;1.27;;;;;;;;;;4949688;28;20519;-87
2022/04/03 14:03:31;;;;;;;3.75;1.60;;;;;;;;;;4944268;28;20105;-86
2022/04/03 14:05:59;;;;;;;5.40;1.30;;;;;;;;;;4949365;28;20555;-89
2022/04/03 14:08:27;;;;;;;7.15;1.35;;;;;;;;;;4952248;28;20295;-89
2022/04/03 14:10:55;;;;;;;3.00;1.20;;;;;;;;;;4948591;28;20495;-88
2022/04/03 14:13:26;;;;;;;3.47;1.35;;;;;;;;;;4951328;28;20079;-88
2022/04/03 14:15:55;;;;;;;2.38;1.10;;;;;;;;;;4941255;28;20427;-88
2022/04/03 14:18:24;;;;;;;4.07;1.30;;;;;;;;;;4957365;28;20129;-89
2022/04/03 14:20:55;;;;;;;2.85;1.08;;;;;;;;;;4957805;28;20074;-87
2022/04/03 14:23:23;;;;;;;5.03;1.27;;;;;;;;;;4956190;28;20047;-90
2022/04/03 14:25:50;;;;;;;6.45;2.05;;;;;;;;;;4951053;28;20054;-89
2022/04/03 14:28:17;;;;;;;2.00;0.95;;;;;;;;;;4952577;28;20504;-89
2022/04/03 14:30:44;;;;;;;5.80;1.40;;;;;;;;;;4950876;28;20102;-88
2022/04/03 14:33:15;;;;;;;4.03;1.50;;;;;;;;;;4949668;28;20090;-88
2022/04/03 14:35:42;;;;;;;5.07;1.40;;;;;;;;;;4955142;28;20539;-86
2022/04/03 14:38:09;;;;;;;5.68;1.50;;;;;;;;;;4951191;28;20079;-86
2022/04/03 14:40:36;;;;;;;3.50;1.38;;;;;;;;;;4954612;28;20515;-88
2022/04/03 14:43:02;;;;;;;3.08;1.55;;;;;;;;;;4950003;28;20114;-87
2022/04/03 14:45:29;;;;;;;2.72;1.15;;;;;;;;;;4940030;28;20126;-87
2022/04/03 14:47:56;;;;;;;5.60;1.90;;;;;;;;;;4952913;28;20058;-85
2022/04/03 14:50:24;;;;;;;9.80;2.10;;;;;;;;;;4952090;28;20129;-88
2022/04/03 14:52:51;;;;;;;4.90;2.20;;;;;;;;;;4955363;28;20059;-89
2022/04/03 14:55:18;;;;;;;4.93;1.70;;;;;;;;;;4948750;28;20102;-89
2022/04/03 14:57:45;;;;;;;4.78;1.92;;;;;;;;;;4955227;28;20824;-87
2022/04/03 15:00:12;;;;;;;4.30;2.15;;;;;;;;;;4957086;28;20129;-88
2022/04/03 15:02:38;;;;;;;5.05;1.80;;;;;;;;;;4956048;28;20206;-86
2022/04/03 15:05:08;;;;;;;5.18;2.53;;;;;;;;;;4949159;28;20058;-87
2022/04/03 15:07:35;;;;;;;4.50;1.90;;;;;;;;;;4947574;28;20051;-88
2022/04/03 15:10:03;;;;;;;3.60;1.52;;;;;;;;;;4950906;28;20047;-88
2022/04/03 15:12:30;;;;;;;5.88;1.92;;;;;;;;;;4949772;28;20481;-87
2022/04/03 15:14:57;;;;;;;4.72;2.00;;;;;;;;;;4955277;28;20824;-89
2022/04/03 15:17:24;;;;;;;5.53;1.92;;;;;;;;;;4952927;28;20051;-88
2022/04/03 15:19:53;;;;;;;6.22;1.95;;;;;;;;;;4950580;28;20530;-89
2022/04/03 15:22:20;;;;;;;5.72;2.00;;;;;;;;;;4956299;28;20042;-89
2022/04/03 15:24:47;;;;;;;7.17;2.13;;;;;;;;;;4953689;28;20082;-89
2022/04/03 15:27:15;;;;;;;4.35;1.65;;;;;;;;;;4947607;28;20055;-88
2022/04/03 15:29:55;;;;;;;4.40;1.60;;;;;;;;;;4953294;28;20117;-89
2022/04/03 15:32:24;;;;;;;3.92;1.48;;;;;;;;;;4956915;28;20093;-87
2022/04/03 15:34:51;;;;;;;7.00;3.17;;;;;;;;;;4956349;28;20531;-89
2022/04/03 15:37:22;;;;;;;4.00;1.92;;;;;;;;;;4955693;28;20046;-88
2022/04/03 15:39:50;;;;;;;6.95;2.13;;;;;;;;;;4953316;28;20043;-88
2022/04/03 15:42:18;;;;;;;5.00;2.17;;;;;;;;;;4951827;28;20051;-89
2022/04/03 15:44:45;;;;;;;8.07;2.75;;;;;;;;;;4955173;28;20113;-89
2022/04/03 15:47:11;;;;;;;4.85;2.13;;;;;;;;;;4951303;28;20074;-88
2022/04/03 15:49:39;;;;;;;4.35;2.03;;;;;;;;;;4955921;28;20129;-88
2022/04/03 15:52:06;;;;;;;8.95;4.43;;;;;;;;;;4952756;28;20070;-88
2022/04/03 15:54:39;;;;;;;4.00;1.77;;;;;;;;;;4955087;28;20065;-88
2022/04/03 15:57:05;;;;;;;4.78;2.75;;;;;;;;;;4956237;28;20051;-88
2022/04/03 15:59:32;;;;;;;4.18;1.80;;;;;;;;;;4951758;28;20082;-88
2022/04/03 16:01:59;;;;;;;4.88;2.33;;;;;;;;;;4952816;28;20523;-86
2022/04/03 16:04:25;;;;;;;11.50;4.80;;;;;;;;;;4948110;28;20051;-87
2022/04/03 16:06:52;;;;;;;12.73;7.38;;;;;;;;;;4947633;28;20061;-85
2022/04/03 16:09:19;;;;;;;4.18;1.70;;;;;;;;;;4949692;28;20464;-86
2022/04/03 16:11:52;;;;;;;13.10;7.10;;;;;;;;;;4947874;28;20061;-85
2022/04/03 16:14:18;;;;;;;1.83;1.13;;;;;;;;;;4951528;28;20043;-87
2022/04/03 16:16:45;;;;;;;3.78;1.30;;;;;;;;;;4950300;28;20097;-89
2022/04/03 16:19:12;;;;;;;1.92;1.20;;;;;;;;;;4935713;28;20051;-87
2022/04/03 16:21:39;;;;;;;2.17;0.95;;;;;;;;;;4943314;28;20055;-87
2022/04/03 16:24:06;;;;;;;2.13;1.30;;;;;;;;;;4950951;28;20102;-88
2022/04/03 16:26:33;;;;;;;4.05;1.10;;;;;;;;;;4953944;28;20483;-87
2022/04/03 16:29:00;;;;;;;3.03;1.50;;;;;;;;;;4948461;28;20040;-89
2022/04/03 16:31:28;;;;;;;3.53;1.30;;;;;;;;;;4950362;28;20125;-87
2022/04/03 16:33:57;;;;;;;5.00;1.30;;;;;;;;;;4949274;28;20173;-89
2022/04/03 16:36:28;;;;;;;;;;;;;;;;;;4948150;28;20055;-88
2022/04/03 16:38:57;;;;;;;3.90;0.98;;;;;;;;;;4946661;28;19926;-87
2022/04/03 16:41:27;;;;;;;5.78;1.00;;;;;;;;;;4946351;28;20130;-88
2022/04/03 16:43:56;;;;;;;3.67;1.13;;;;;;;;;;4949343;28;20118;-89
2022/04/03 16:46:27;;;;;;;2.88;0.70;;;;;;;;;;4943685;28;20051;-87
2022/04/03 16:48:54;;;;;;;4.38;1.27;;;;;;;;;;4948567;28;20055;-89
2022/04/03 16:51:20;;;;;;;2.38;0.90;;;;;;;;;;4946653;28;20063;-87
2022/04/03 16:53:55;;;;;;;9.52;5.18;;;;;;;;;;4952455;28;20336;-89
2022/04/03 16:56:23;;;;;;;4.97;2.47;;;;;;;;;;4946622;28;20039;-87
2022/04/03 16:58:50;;;;;;;5.47;3.08;;;;;;;;;;4951083;28;21260;-88
2022/04/03 17:01:17;;;;;;;5.22;1.60;;;;;;;;;;4946187;28;20097;-88
2022/04/03 17:03:44;;;;;;;7.30;2.03;;;;;;;;;;4935324;28;20047;-88
2022/04/03 17:06:12;;;;;;;4.32;1.15;;;;;;;;;;4944455;28;20051;-88
2022/04/03 17:08:38;;;;;;;5.57;1.60;;;;;;;;;;4954732;28;20059;-86
2022/04/03 17:11:05;;;;;;;3.67;1.08;;;;;;;;;;4947291;28;20126;-88
2022/04/03 17:13:32;;;;;;;3.03;1.20;;;;;;;;;;4949090;28;20051;-90
2022/04/03 17:15:59;;;;;;;6.75;2.92;;;;;;;;;;4941168;28;20043;-87
2022/04/03 17:18:25;;;;;;;6.80;1.33;;;;;;;;;;4952087;28;20047;-87
2022/04/03 17:20:52;;;;;;;2.75;1.15;;;;;;;;;;4937352;28;20118;-88
2022/04/03 17:23:19;;;;;;;4.35;1.15;;;;;;;;;;4950569;28;20081;-88
2022/04/03 17:25:48;;;;;;;4.00;1.10;;;;;;;;;;4953382;28;20057;-89
2022/04/03 17:28:15;;;;;;;3.47;1.50;;;;;;;;;;4948301;28;20078;-88
2022/04/03 17:30:41;;;;;;;2.85;1.08;;;;;;;;;;4955363;28;20090;-87
2022/04/03 17:33:08;;;;;;;2.40;1.10;;;;;;;;;;4934612;28;20516;-88
2022/04/03 17:35:35;;;;;;;5.95;1.23;;;;;;;;;;4953187;28;20067;-87
2022/04/03 17:38:01;;;;;;;4.13;1.50;;;;;;;;;;4950985;28;20055;-89
2022/04/03 17:40:28;;;;;;;3.35;1.10;;;;;;;;;;4934507;28;20078;-88
2022/04/03 17:42:55;;;;;;;4.13;1.10;;;;;;;;;;4956356;28;20074;-89
2022/04/03 17:45:21;;;;;;;2.60;1.20;;;;;;;;;;4950075;28;20058;-88
2022/04/03 17:47:48;;;;;;;4.50;1.17;;;;;;;;;;4951399;28;20063;-88
2022/04/03 17:50:15;;;;;;;7.20;1.63;;;;;;;;;;4952769;28;20079;-88
2022/04/03 17:52:41;;;;;;;4.03;1.85;;;;;;;;;;4948676;28;20118;-87
2022/04/03 17:55:10;;;;;;;3.67;1.92;;;;;;;;;;4939862;28;20508;-88
2022/04/03 17:57:38;;;;;;;5.70;1.50;;;;;;;;;;4952903;28;20058;-87
2022/04/03 18:00:07;;;;;;;7.53;1.90;;;;;;;;;;4934403;28;20059;-87
2022/04/03 18:02:35;;;;;;;7.45;1.73;;;;;;;;;;4954463;28;20051;-88
2022/04/03 18:05:03;;;;;;;5.40;1.65;;;;;;;;;;4938723;28;20054;-87
2022/04/03 18:07:30;;;;;;;7.28;3.72;;;;;;;;;;4939607;28;20051;-88
2022/04/03 18:09:56;;;;;;;3.97;2.10;;;;;;;;;;4943979;28;20114;-88
2022/04/03 18:12:23;;;;;;;6.50;1.98;;;;;;;;;;4945279;28;20552;-88
2022/04/03 18:14:51;;;;;;;3.85;2.20;;;;;;;;;;4951283;28;20051;-89
2022/04/03 18:17:17;;;;;;;4.20;1.65;;;;;;;;;;4949700;28;20138;-88
2022/04/03 18:19:44;;;;;;;3.25;1.30;;;;;;;;;;4948648;28;20074;-87
2022/04/03 18:22:12;;;;;;;2.85;1.30;;;;;;;;;;4951193;28;20094;-87
2022/04/03 18:24:39;;;;;;;3.08;1.30;;;;;;;;;;4953677;29;20517;-89
2022/04/03 18:27:09;;;;;;;4.07;1.73;;;;;;;;;;4933280;29;20052;-87
2022/04/03 18:29:36;;;;;;;4.75;1.58;;;;;;;;;;4954550;29;20075;-88
2022/04/03 18:32:03;;;;;;;4.40;1.95;;;;;;;;;;4953304;29;20059;-88
2022/04/03 18:34:30;;;;;;;3.33;1.58;;;;;;;;;;4950748;28;20055;-87
2022/04/03 18:37:00;;;;;;;6.70;1.60;;;;;;;;;;4944195;28;20052;-88
2022/04/03 18:39:26;;;;;;;4.85;1.48;;;;;;;;;;4938637;28;20079;-89
2022/04/03 18:41:53;;;;;;;2.75;1.50;;;;;;;;;;4952549;28;20082;-88
2022/04/03 18:44:21;;;;;;;4.55;1.90;;;;;;;;;;4942835;28;20479;-88
2022/04/03 18:46:47;;;;;;;5.57;2.47;;;;;;;;;;4958242;28;20537;-88
2022/04/03 18:49:14;;;;;;;4.82;1.92;;;;;;;;;;4952258;28;20479;-87
2022/04/03 18:51:42;;;;;;;5.20;2.00;;;;;;;;;;4953931;28;20047;-88
2022/04/03 18:54:09;;;;;;;5.03;1.70;;;;;;;;;;4948004;28;20516;-87
2022/04/03 18:56:36;;;;;;;3.55;1.20;;;;;;;;;;4961414;28;20133;-88
2022/04/03 18:59:05;;;;;;;4.55;1.40;;;;;;;;;;4951146;28;20059;-87
2022/04/03 19:01:32;;;;;;;2.17;1.20;;;;;;;;;;4948902;28;20117;-87
2022/04/03 19:04:01;;;;;;;2.90;1.40;;;;;;;;;;4935222;28;20517;-87
2022/04/03 19:06:28;;;;;;;;;;;;;;;;;;4949002;28;20766;-86
2022/04/03 19:08:55;;;;;;;6.72;1.55;;;;;;;;;;4946447;28;19981;-86
2022/04/03 19:11:21;;;;;;;3.63;1.58;;;;;;;;;;4950676;28;20102;-87
2022/04/03 19:13:48;;;;;;;3.63;1.70;;;;;;;;;;4950567;28;20090;-86
2022/04/03 19:16:15;;;;;;;5.15;1.83;;;;;;;;;;4947036;28;20083;-88
2022/04/03 19:18:45;;;;;;;3.15;1.42;;;;;;;;;;4948983;28;20082;-87
2022/04/03 19:21:12;;;;;;;3.47;1.40;;;;;;;;;;4948224;28;20106;-86
2022/04/03 19:23:44;;;;;;;5.47;1.88;;;;;;;;;;4949828;28;20106;-88
2022/04/03 19:26:10;;;;;;;3.72;1.45;;;;;;;;;;4948773;28;20542;-86
2022/04/03 19:28:37;;;;;;;4.03;1.60;;;;;;;;;;4948980;28;20141;-85
2022/04/03 19:31:04;;;;;;;6.22;2.42;;;;;;;;;;4946443;28;20051;-82
2022/04/03 19:33:30;;;;;;;5.07;1.50;;;;;;;;;;4931386;29;20059;-86
2022/04/03 19:35:57;;;;;;;5.32;1.60;;;;;;;;;;4947396;29;20051;-84
2022/04/03 19:38:23;;;;;;;4.97;1.60;;;;;;;;;;4948973;29;20496;-85
2022/04/03 19:40:50;;;;;;;6.57;1.65;;;;;;;;;;4948372;28;20480;-85
2022/04/03 19:43:16;;;;;;;3.80;1.52;;;;;;;;;;4948258;28;20048;-86
2022/04/03 19:45:44;;;;;;;3.05;1.42;;;;;;;;;;4947165;28;20052;-86
2022/04/03 19:48:10;;;;;;;5.13;1.40;;;;;;;;;;4947813;29;20106;-85
2022/04/03 19:50:37;;;;;;;7.47;1.70;;;;;;;;;;4948940;29;20551;-86
2022/04/03 19:53:03;;;;;;;5.18;1.42;;;;;;;;;;4949186;28;20066;-85
2022/04/03 19:55:30;;;;;;;5.75;2.25;;;;;;;;;;4949687;29;20114;-85
2022/04/03 19:57:58;;;;;;;4.68;1.50;;;;;;;;;;4949394;28;20071;-86
2022/04/03 20:00:25;;;;;;;9.25;1.70;;;;;;;;;;4948299;28;20046;-86
2022/04/03 20:02:51;;;;;;;4.03;1.70;;;;;;;;;;4950429;28;20039;-85
2022/04/03 20:05:19;;;;;;;4.45;1.60;;;;;;;;;;4949133;28;20051;-87
2022/04/03 20:07:47;;;;;;;8.02;1.73;;;;;;;;;;4948963;28;20090;-87
2022/04/03 20:10:15;;;;;;;5.93;1.73;;;;;;;;;;4930264;29;20051;-88
2022/04/03 20:12:42;;;;;;;6.22;1.77;;;;;;;;;;4947732;28;20475;-86
2022/04/03 20:15:10;;;;;;;4.25;1.48;;;;;;;;;;4949736;28;20035;-87
2022/04/03 20:17:37;;;;;;;9.10;1.67;;;;;;;;;;4950633;28;20476;-86
2022/04/03 20:20:09;;;;;;;2.42;1.70;;;;;;;;;;4948042;28;20125;-87
2022/04/03 20:22:36;;;;;;;3.22;2.17;;;;;;;;;;4948752;28;20114;-86
2022/04/03 20:25:05;;;;;;;6.63;1.92;;;;;;;;;;4951906;28;20059;-88
2022/04/03 20:27:31;;;;;;;7.10;1.70;;;;;;;;;;4927948;28;20051;-86
2022/04/03 20:29:59;;;;;;;3.28;1.50;;;;;;;;;;4930275;29;20070;-86
2022/04/03 20:32:25;;;;;;;7.10;2.03;;;;;;;;;;4947587;29;20051;-86
2022/04/03 20:34:52;;;;;;;3.30;1.67;;;;;;;;;;4947241;28;20043;-88
2022/04/03 20:37:19;;;;;;;6.90;1.90;;;;;;;;;;4947189;28;20075;-85
2022/04/03 20:39:45;;;;;;;9.77;2.00;;;;;;;;;;4947735;29;20051;-87
2022/04/03 20:42:13;;;;;;;4.95;2.08;;;;;;;;;;4946855;28;20055;-86
2022/04/03 20:44:40;;;;;;;8.05;2.00;;;;;;;;;;4945070;29;20099;-87
2022/04/03 20:47:06;;;;;;;5.18;2.08;;;;;;;;;;4944928;29;20079;-87
2022/04/03 20:49:33;;;;;;;3.65;1.80;;;;;;;;;;4945854;29;20629;-86
2022/04/03 20:51:59;;;;;;;4.00;1.90;;;;;;;;;;4946730;29;20074;-85
2022/04/03 20:54:26;;;;;;;4.13;1.90;;;;;;;;;;4946025;29;20078;-86
2022/04/03 20:56:53;;;;;;;4.47;1.40;;;;;;;;;;4946447;29;20054;-87
2022/04/03 20:59:20;;;;;;;6.30;1.90;;;;;;;;;;4946233;28;20051;-86